createdAt,value
2019-01-22T00:00:41.499Z,1006.91
2019-01-22T00:01:41.467Z,1006.92
2019-01-22T00:02:41.513Z,1006.90
2019-01-22T00:03:41.501Z,1006.89
2019-01-22T00:04:41.432Z,1006.89
2019-01-22T00:05:41.502Z,1006.88
2019-01-22T00:06:41.452Z,1006.87
2019-01-22T00:07:41.503Z,1006.81
2019-01-22T00:08:41.490Z,1006.85
2019-01-22T00:09:41.472Z,1006.80
2019-01-22T00:10:41.497Z,1006.77
2019-01-22T00:11:41.513Z,1006.73
2019-01-22T00:12:41.442Z,1006.73
2019-01-22T00:13:41.522Z,1006.74
2019-01-22T00:14:41.414Z,1006.73
2019-01-22T00:15:41.411Z,1006.70
2019-01-22T00:16:41.501Z,1006.70
2019-01-22T00:17:41.492Z,1006.73
2019-01-22T00:18:41.514Z,1006.66
2019-01-22T00:19:41.454Z,1006.65
2019-01-22T00:20:41.489Z,1006.65
2019-01-22T00:21:41.462Z,1006.65
2019-01-22T00:22:41.417Z,1006.59
2019-01-22T00:23:41.416Z,1006.63
2019-01-22T00:24:41.425Z,1006.58
2019-01-22T00:25:41.445Z,1006.56
2019-01-22T00:26:41.447Z,1006.58
2019-01-22T00:27:41.516Z,1006.58
2019-01-22T00:28:41.454Z,1006.56
2019-01-22T00:29:41.457Z,1006.52
2019-01-22T00:30:41.521Z,1006.51
2019-01-22T00:31:41.456Z,1006.49
2019-01-22T00:32:41.459Z,1006.49
2019-01-22T00:33:41.530Z,1006.45
2019-01-22T00:34:41.458Z,1006.44
2019-01-22T00:35:41.523Z,1006.44
2019-01-22T00:36:41.555Z,1006.47
2019-01-22T00:37:41.429Z,1006.45
2019-01-22T00:38:41.519Z,1006.46
2019-01-22T00:39:41.540Z,1006.46
2019-01-22T00:40:41.483Z,1006.45
2019-01-22T00:41:41.469Z,1006.44
2019-01-22T00:42:41.539Z,1006.42
2019-01-22T00:43:41.487Z,1006.40
2019-01-22T00:44:41.470Z,1006.40
2019-01-22T00:45:41.548Z,1006.39
2019-01-22T00:46:41.464Z,1006.41
2019-01-22T00:47:41.534Z,1006.39
2019-01-22T00:48:41.470Z,1006.42
2019-01-22T00:49:41.532Z,1006.40
2019-01-22T00:50:41.470Z,1006.40
2019-01-22T00:51:41.544Z,1006.41
2019-01-22T00:52:41.536Z,1006.37
2019-01-22T00:53:41.537Z,1006.39
2019-01-22T00:54:41.468Z,1006.39
2019-01-22T00:55:41.539Z,1006.35
2019-01-22T00:56:41.540Z,1006.34
2019-01-22T00:57:41.564Z,1006.35
2019-01-22T00:58:41.497Z,1006.29
2019-01-22T00:59:41.557Z,1006.26
2019-01-22T01:00:41.501Z,1006.27
2019-01-22T01:01:41.504Z,1006.26
2019-01-22T01:02:41.507Z,1006.20
2019-01-22T01:03:41.577Z,1006.16
2019-01-22T01:04:41.568Z,1006.21
2019-01-22T01:05:41.571Z,1006.17
2019-01-22T01:06:41.504Z,1006.18
2019-01-22T01:07:41.563Z,1006.19
2019-01-22T01:08:41.487Z,1006.19
2019-01-22T01:09:41.580Z,1006.18
2019-01-22T01:10:41.649Z,1006.16
2019-01-22T01:11:41.505Z,1006.15
2019-01-22T01:12:41.493Z,1006.13
2019-01-22T01:13:41.517Z,1006.09
2019-01-22T01:14:41.504Z,1006.09
2019-01-22T01:15:41.459Z,1006.08
2019-01-22T01:16:41.575Z,1006.05
2019-01-22T01:17:41.513Z,1006.01
2019-01-22T01:18:41.492Z,1006.04
2019-01-22T01:19:41.583Z,1006.01
2019-01-22T01:20:41.588Z,1005.98
2019-01-22T01:21:41.605Z,1005.99
2019-01-22T01:22:41.591Z,1005.97
2019-01-22T01:23:41.571Z,1005.97
2019-01-22T01:24:41.601Z,1005.95
2019-01-22T01:25:41.529Z,1005.91
2019-01-22T01:26:41.515Z,1005.89
2019-01-22T01:27:41.574Z,1005.91
2019-01-22T01:28:41.590Z,1005.89
2019-01-22T01:29:41.507Z,1005.87
2019-01-22T01:30:41.573Z,1005.84
2019-01-22T01:31:41.515Z,1005.85
2019-01-22T01:32:41.510Z,1005.85
2019-01-22T01:33:41.576Z,1005.85
2019-01-22T01:34:41.518Z,1005.85
2019-01-22T01:35:41.511Z,1005.84
2019-01-22T01:36:41.518Z,1005.83
2019-01-22T01:37:41.537Z,1005.85
2019-01-22T01:38:41.510Z,1005.82
2019-01-22T01:39:41.593Z,1005.83
2019-01-22T01:40:41.593Z,1005.80
2019-01-22T01:41:41.587Z,1005.78
2019-01-22T01:42:41.529Z,1005.74
2019-01-22T01:43:41.526Z,1005.73
2019-01-22T01:44:41.523Z,1005.73
2019-01-22T01:45:41.514Z,1005.68
2019-01-22T01:46:41.585Z,1005.69
2019-01-22T01:47:41.518Z,1005.65
2019-01-22T01:48:41.597Z,1005.66
2019-01-22T01:49:41.590Z,1005.61
2019-01-22T01:50:41.588Z,1005.59
2019-01-22T01:51:41.517Z,1005.61
2019-01-22T01:52:41.618Z,1005.56
2019-01-22T01:53:41.521Z,1005.56
2019-01-22T01:54:41.544Z,1005.53
2019-01-22T01:55:41.583Z,1005.55
2019-01-22T01:56:41.542Z,1005.55
2019-01-22T01:57:41.600Z,1005.51
2019-01-22T01:58:41.593Z,1005.50
2019-01-22T01:59:41.530Z,1005.47
2019-01-22T02:00:41.610Z,1005.47
2019-01-22T02:01:41.614Z,1005.42
2019-01-22T02:02:41.603Z,1005.38
2019-01-22T02:03:41.526Z,1005.35
2019-01-22T02:04:41.551Z,1005.33
2019-01-22T02:05:41.612Z,1005.32
2019-01-22T02:06:41.521Z,1005.29
2019-01-22T02:07:41.587Z,1005.30
2019-01-22T02:08:41.591Z,1005.30
2019-01-22T02:09:41.520Z,1005.26
2019-01-22T02:10:41.591Z,1005.25
2019-01-22T02:11:41.593Z,1005.23
2019-01-22T02:12:41.521Z,1005.17
2019-01-22T02:13:41.598Z,1005.19
2019-01-22T02:14:41.523Z,1005.12
2019-01-22T02:15:41.599Z,1005.09
2019-01-22T02:16:41.521Z,1005.10
2019-01-22T02:17:41.547Z,1005.07
2019-01-22T02:18:41.453Z,1005.02
2019-01-22T02:19:41.523Z,1005.04
2019-01-22T02:20:41.492Z,1004.99
2019-01-22T02:21:41.548Z,1005.01
2019-01-22T02:22:41.492Z,1005.01
2019-01-22T02:23:41.550Z,1005.00
2019-01-22T02:24:41.576Z,1004.98
2019-01-22T02:25:41.479Z,1004.95
2019-01-22T02:26:41.488Z,1004.93
2019-01-22T02:27:41.466Z,1004.88
2019-01-22T02:28:41.547Z,1004.84
2019-01-22T02:29:41.532Z,1004.87
2019-01-22T02:30:41.642Z,1004.81
2019-01-22T02:31:41.493Z,1004.77
2019-01-22T02:32:41.472Z,1004.73
2019-01-22T02:33:41.496Z,1004.73
2019-01-22T02:34:41.563Z,1004.69
2019-01-22T02:35:41.558Z,1004.66
2019-01-22T02:36:41.598Z,1004.62
2019-01-22T02:37:41.542Z,1004.65
2019-01-22T02:38:41.540Z,1004.60
2019-01-22T02:39:41.611Z,1004.62
2019-01-22T02:40:41.536Z,1004.63
2019-01-22T02:41:41.608Z,1004.63
2019-01-22T02:42:41.490Z,1004.60
2019-01-22T02:43:41.583Z,1004.57
2019-01-22T02:44:41.541Z,1004.59
2019-01-22T02:45:41.621Z,1004.58
2019-01-22T02:46:41.562Z,1004.53
2019-01-22T02:47:41.549Z,1004.51
2019-01-22T02:48:41.544Z,1004.50
2019-01-22T02:49:41.618Z,1004.44
2019-01-22T02:50:41.619Z,1004.43
2019-01-22T02:51:41.551Z,1004.41
2019-01-22T02:52:41.627Z,1004.42
2019-01-22T02:53:41.564Z,1004.41
2019-01-22T02:54:41.633Z,1004.41
2019-01-22T02:55:41.550Z,1004.41
2019-01-22T02:56:41.624Z,1004.41
2019-01-22T02:57:41.567Z,1004.36
2019-01-22T02:58:41.583Z,1004.38
2019-01-22T02:59:41.641Z,1004.37
2019-01-22T03:00:41.599Z,1004.35
2019-01-22T03:01:41.587Z,1004.29
2019-01-22T03:02:41.650Z,1004.26
2019-01-22T03:03:41.579Z,1004.25
2019-01-22T03:04:41.663Z,1004.20
2019-01-22T03:05:41.585Z,1004.21
2019-01-22T03:06:41.572Z,1004.20
2019-01-22T03:07:41.572Z,1004.16
2019-01-22T03:08:41.606Z,1004.13
2019-01-22T03:09:41.573Z,1004.11
2019-01-22T03:10:41.668Z,1004.08
2019-01-22T03:11:41.610Z,1004.10
2019-01-22T03:12:41.609Z,1004.09
2019-01-22T03:13:41.652Z,1004.08
2019-01-22T03:14:41.676Z,1004.05
2019-01-22T03:15:41.710Z,1004.02
2019-01-22T03:16:41.655Z,1004.08
2019-01-22T03:17:41.542Z,1004.04
2019-01-22T03:18:41.520Z,1004.08
2019-01-22T03:19:41.642Z,1004.03
2019-01-22T03:20:41.626Z,1004.02
2019-01-22T03:21:41.631Z,1004.00
2019-01-22T03:22:41.569Z,1003.98
2019-01-22T03:23:46.314Z,1003.99
2019-01-22T03:24:41.557Z,1003.95
2019-01-22T03:25:41.570Z,1003.92
2019-01-22T03:26:41.631Z,1003.95
2019-01-22T03:27:41.656Z,1003.86
2019-01-22T03:28:41.659Z,1003.92
2019-01-22T03:29:41.663Z,1003.89
2019-01-22T03:30:41.673Z,1003.86
2019-01-22T03:31:41.677Z,1003.83
2019-01-22T03:32:41.591Z,1003.81
2019-01-22T03:33:41.617Z,1003.84
2019-01-22T03:34:41.674Z,1003.82
2019-01-22T03:35:41.609Z,1003.82
2019-01-22T03:36:41.587Z,1003.79
2019-01-22T03:37:41.664Z,1003.82
2019-01-22T03:38:41.614Z,1003.82
2019-01-22T03:39:41.693Z,1003.82
2019-01-22T03:40:41.594Z,1003.79
2019-01-22T03:41:41.673Z,1003.78
2019-01-22T03:42:41.675Z,1003.79
2019-01-22T03:43:41.689Z,1003.79
2019-01-22T03:44:41.672Z,1003.76
2019-01-22T03:45:41.672Z,1003.77
2019-01-22T03:46:41.585Z,1003.74
2019-01-22T03:47:41.604Z,1003.73
2019-01-22T03:48:41.600Z,1003.75
2019-01-22T03:49:41.675Z,1003.72
2019-01-22T03:50:41.609Z,1003.71
2019-01-22T03:51:41.685Z,1003.72
2019-01-22T03:52:41.624Z,1003.70
2019-01-22T03:53:41.604Z,1003.69
2019-01-22T03:54:41.696Z,1003.67
2019-01-22T03:55:41.685Z,1003.67
2019-01-22T03:56:41.609Z,1003.68
2019-01-22T03:57:41.606Z,1003.64
2019-01-22T03:58:41.658Z,1003.64
2019-01-22T03:59:41.629Z,1003.66
2019-01-22T04:00:41.613Z,1003.68
2019-01-22T04:01:41.605Z,1003.63
2019-01-22T04:02:41.692Z,1003.61
2019-01-22T04:03:41.609Z,1003.60
2019-01-22T04:04:41.627Z,1003.59
2019-01-22T04:05:41.611Z,1003.60
2019-01-22T04:06:41.687Z,1003.57
2019-01-22T04:07:41.675Z,1003.54
2019-01-22T04:08:41.633Z,1003.52
2019-01-22T04:09:41.704Z,1003.53
2019-01-22T04:10:41.632Z,1003.46
2019-01-22T04:11:41.696Z,1003.43
2019-01-22T04:12:41.656Z,1003.48
2019-01-22T04:13:41.645Z,1003.44
2019-01-22T04:14:41.697Z,1003.40
2019-01-22T04:15:41.604Z,1003.41
2019-01-22T04:16:41.700Z,1003.38
2019-01-22T04:17:41.669Z,1003.42
2019-01-22T04:18:41.557Z,1003.37
2019-01-22T04:19:41.647Z,1003.38
2019-01-22T04:20:41.676Z,1003.36
2019-01-22T04:21:41.579Z,1003.35
2019-01-22T04:22:41.578Z,1003.38
2019-01-22T04:23:41.585Z,1003.36
2019-01-22T04:24:41.607Z,1003.39
2019-01-22T04:25:41.688Z,1003.40
2019-01-22T04:26:41.612Z,1003.35
2019-01-22T04:27:41.664Z,1003.36
2019-01-22T04:28:41.559Z,1003.36
2019-01-22T04:29:41.571Z,1003.36
2019-01-22T04:30:41.602Z,1003.40
2019-01-22T04:31:41.596Z,1003.34
2019-01-22T04:32:41.670Z,1003.35
2019-01-22T04:33:41.642Z,1003.35
2019-01-22T04:34:41.672Z,1003.33
2019-01-22T04:35:41.667Z,1003.30
2019-01-22T04:36:41.631Z,1003.32
2019-01-22T04:37:41.639Z,1003.29
2019-01-22T04:38:41.555Z,1003.27
2019-01-22T04:39:41.587Z,1003.26
2019-01-22T04:40:41.545Z,1003.24
2019-01-22T04:41:41.589Z,1003.23
2019-01-22T04:42:41.583Z,1003.19
2019-01-22T04:43:41.602Z,1003.14
2019-01-22T04:44:41.552Z,1003.16
2019-01-22T04:45:41.548Z,1003.19
2019-01-22T04:46:41.550Z,1003.16
2019-01-22T04:47:41.718Z,1003.14
2019-01-22T04:48:41.639Z,1003.10
2019-01-22T04:49:41.714Z,1003.12
2019-01-22T04:50:41.716Z,1003.05
2019-01-22T04:51:41.733Z,1003.09
2019-01-22T04:52:41.708Z,1003.05
2019-01-22T04:53:41.722Z,1003.03
2019-01-22T04:54:41.647Z,1003.00
2019-01-22T04:55:41.717Z,1003.05
2019-01-22T04:56:41.726Z,1002.97
2019-01-22T04:57:41.641Z,1003.01
2019-01-22T04:58:41.716Z,1003.03
2019-01-22T04:59:41.637Z,1002.98
2019-01-22T05:00:41.726Z,1002.94
2019-01-22T05:01:41.647Z,1002.94
2019-01-22T05:02:41.713Z,1002.87
2019-01-22T05:03:41.712Z,1002.90
2019-01-22T05:04:41.651Z,1002.87
2019-01-22T05:05:41.712Z,1002.89
2019-01-22T05:06:41.641Z,1002.85
2019-01-22T05:07:41.680Z,1002.81
2019-01-22T05:08:41.659Z,1002.80
2019-01-22T05:09:41.625Z,1002.78
2019-01-22T05:10:41.686Z,1002.82
2019-01-22T05:11:41.614Z,1002.74
2019-01-22T05:12:41.648Z,1002.73
2019-01-22T05:13:41.730Z,1002.74
2019-01-22T05:14:41.666Z,1002.71
2019-01-22T05:15:41.600Z,1002.73
2019-01-22T05:16:41.604Z,1002.67
2019-01-22T05:17:41.741Z,1002.67
2019-01-22T05:18:41.667Z,1002.67
2019-01-22T05:19:41.679Z,1002.67
2019-01-22T05:20:41.739Z,1002.66
2019-01-22T05:21:41.743Z,1002.68
2019-01-22T05:22:41.683Z,1002.64
2019-01-22T05:23:41.682Z,1002.66
2019-01-22T05:24:41.682Z,1002.64
2019-01-22T05:25:41.702Z,1002.63
2019-01-22T05:26:41.749Z,1002.64
2019-01-22T05:27:41.803Z,1002.64
2019-01-22T05:28:41.682Z,1002.66
2019-01-22T05:29:41.754Z,1002.63
2019-01-22T05:30:41.739Z,1002.65
2019-01-22T05:31:41.753Z,1002.59
2019-01-22T05:32:41.758Z,1002.62
2019-01-22T05:33:41.871Z,1002.60
2019-01-22T05:34:41.673Z,1002.60
2019-01-22T05:35:41.770Z,1002.55
2019-01-22T05:36:41.761Z,1002.55
2019-01-22T05:37:41.734Z,1002.57
2019-01-22T05:38:41.692Z,1002.54
2019-01-22T05:39:41.752Z,1002.56
2019-01-22T05:40:41.687Z,1002.54
2019-01-22T05:41:41.753Z,1002.50
2019-01-22T05:42:41.693Z,1002.51
2019-01-22T05:43:41.752Z,1002.52
2019-01-22T05:44:41.695Z,1002.52
2019-01-22T05:45:41.756Z,1002.55
2019-01-22T05:46:41.700Z,1002.51
2019-01-22T05:47:41.675Z,1002.49
2019-01-22T05:48:41.748Z,1002.48
2019-01-22T05:49:41.746Z,1002.49
2019-01-22T05:50:41.676Z,1002.44
2019-01-22T05:51:41.954Z,1002.44
2019-01-22T05:52:41.752Z,1002.44
2019-01-22T05:53:41.691Z,1002.40
2019-01-22T05:54:41.750Z,1002.38
2019-01-22T05:55:41.683Z,1002.40
2019-01-22T05:56:41.750Z,1002.38
2019-01-22T05:57:41.641Z,1002.34
2019-01-22T05:58:41.603Z,1002.35
2019-01-22T05:59:41.687Z,1002.34
2019-01-22T06:00:41.756Z,1002.30
2019-01-22T06:01:41.695Z,1002.28
2019-01-22T06:02:41.698Z,1002.29
2019-01-22T06:03:41.697Z,1002.25
2019-01-22T06:04:41.700Z,1002.28
2019-01-22T06:05:41.698Z,1002.30
2019-01-22T06:06:41.608Z,1002.27
2019-01-22T06:07:41.778Z,1002.31
2019-01-22T06:08:41.726Z,1002.26
2019-01-22T06:09:41.715Z,1002.30
2019-01-22T06:10:41.782Z,1002.26
2019-01-22T06:11:41.783Z,1002.24
2019-01-22T06:12:41.790Z,1002.23
2019-01-22T06:13:41.740Z,1002.26
2019-01-22T06:14:41.788Z,1002.23
2019-01-22T06:15:41.656Z,1002.28
2019-01-22T06:16:41.784Z,1002.29
2019-01-22T06:17:41.782Z,1002.24
2019-01-22T06:18:41.798Z,1002.27
2019-01-22T06:19:41.768Z,1002.25
2019-01-22T06:20:41.727Z,1002.25
2019-01-22T06:21:41.800Z,1002.25
2019-01-22T06:22:41.729Z,1002.21
2019-01-22T06:23:41.731Z,1002.20
2019-01-22T06:24:41.745Z,1002.17
2019-01-22T06:25:41.728Z,1002.23
2019-01-22T06:26:41.727Z,1002.17
2019-01-22T06:27:41.705Z,1002.16
2019-01-22T06:28:41.775Z,1002.14
2019-01-22T06:29:41.710Z,1002.15
2019-01-22T06:30:41.776Z,1002.14
2019-01-22T06:31:41.702Z,1002.13
2019-01-22T06:32:41.772Z,1002.13
2019-01-22T06:33:41.701Z,1002.10
2019-01-22T06:34:41.772Z,1002.10
2019-01-22T06:35:41.703Z,1002.06
2019-01-22T06:36:41.775Z,1002.02
2019-01-22T06:37:41.719Z,1002.06
2019-01-22T06:38:41.717Z,1002.04
2019-01-22T06:39:41.805Z,1001.95
2019-01-22T06:40:41.726Z,1001.97
2019-01-22T06:41:41.815Z,1002.00
2019-01-22T06:42:41.729Z,1001.97
2019-01-22T06:43:41.721Z,1001.96
2019-01-22T06:44:41.731Z,1001.98
2019-01-22T06:45:41.798Z,1001.99
2019-01-22T06:46:41.798Z,1001.96
2019-01-22T06:47:41.723Z,1001.97
2019-01-22T06:48:41.789Z,1001.96
2019-01-22T06:49:41.723Z,1001.94
2019-01-22T06:50:41.788Z,1001.93
2019-01-22T06:51:41.724Z,1001.94
2019-01-22T06:52:41.786Z,1002.00
2019-01-22T06:53:41.727Z,1001.97
2019-01-22T06:54:41.788Z,1001.95
2019-01-22T06:55:41.729Z,1001.93
2019-01-22T06:56:41.793Z,1001.96
2019-01-22T06:57:41.794Z,1001.98
2019-01-22T06:58:41.728Z,1001.93
2019-01-22T06:59:41.806Z,1001.97
2019-01-22T07:00:41.740Z,1001.89
2019-01-22T07:01:41.821Z,1001.91
2019-01-22T07:02:41.793Z,1001.91
2019-01-22T07:03:41.735Z,1001.94
2019-01-22T07:04:41.809Z,1001.90
2019-01-22T07:05:41.822Z,1001.93
2019-01-22T07:06:41.814Z,1001.90
2019-01-22T07:07:41.808Z,1001.80
2019-01-22T07:08:41.833Z,1001.85
2019-01-22T07:09:41.815Z,1001.80
2019-01-22T07:10:41.896Z,1001.84
2019-01-22T07:11:41.813Z,1001.84
2019-01-22T07:12:41.742Z,1001.79
2019-01-22T07:13:41.774Z,1001.82
2019-01-22T07:14:41.818Z,1001.80
2019-01-22T07:15:41.752Z,1001.77
2019-01-22T07:16:41.743Z,1001.77
2019-01-22T07:17:41.725Z,1001.76
2019-01-22T07:18:41.791Z,1001.75
2019-01-22T07:19:41.780Z,1001.72
2019-01-22T07:20:41.731Z,1001.72
2019-01-22T07:21:41.702Z,1001.72
2019-01-22T07:22:41.728Z,1001.75
2019-01-22T07:23:41.736Z,1001.70
2019-01-22T07:24:46.766Z,1001.68
2019-01-22T07:25:41.769Z,1001.65
2019-01-22T07:26:41.738Z,1001.64
2019-01-22T07:27:41.813Z,1001.62
2019-01-22T07:28:41.809Z,1001.62
2019-01-22T07:29:41.810Z,1001.57
2019-01-22T07:30:41.742Z,1001.60
2019-01-22T07:31:41.813Z,1001.60
2019-01-22T07:32:41.740Z,1001.58
2019-01-22T07:33:41.814Z,1001.57
2019-01-22T07:34:41.816Z,1001.58
2019-01-22T07:35:41.817Z,1001.60
2019-01-22T07:36:41.820Z,1001.60
2019-01-22T07:37:41.762Z,1001.59
2019-01-22T07:38:41.828Z,1001.59
2019-01-22T07:39:41.762Z,1001.60
2019-01-22T07:40:41.850Z,1001.60
2019-01-22T07:41:41.834Z,1001.60
2019-01-22T07:42:41.767Z,1001.60
2019-01-22T07:43:41.842Z,1001.58
2019-01-22T07:44:41.827Z,1001.56
2019-01-22T07:45:41.831Z,1001.56
2019-01-22T07:46:41.847Z,1001.56
2019-01-22T07:47:41.764Z,1001.54
2019-01-22T07:48:41.761Z,1001.52
2019-01-22T07:49:41.792Z,1001.51
2019-01-22T07:50:41.717Z,1001.51
2019-01-22T07:51:41.686Z,1001.52
2019-01-22T07:52:41.655Z,1001.52
2019-01-22T07:53:41.771Z,1001.54
2019-01-22T07:54:41.649Z,1001.51
2019-01-22T07:55:41.750Z,1001.45
2019-01-22T07:56:41.830Z,1001.48
2019-01-22T07:57:41.677Z,1001.47
2019-01-22T07:58:41.841Z,1001.46
2019-01-22T07:59:41.842Z,1001.45
2019-01-22T08:00:41.833Z,1001.49
2019-01-22T08:01:41.775Z,1001.45
2019-01-22T08:02:41.848Z,1001.43
2019-01-22T08:03:41.775Z,1001.45
2019-01-22T08:04:41.852Z,1001.44
2019-01-22T08:05:41.772Z,1001.38
2019-01-22T08:06:41.847Z,1001.38
2019-01-22T08:07:41.852Z,1001.28
2019-01-22T08:08:41.765Z,1001.32
2019-01-22T08:09:41.743Z,1001.27
2019-01-22T08:10:41.774Z,1001.26
2019-01-22T08:11:41.765Z,1001.25
2019-01-22T08:12:41.841Z,1001.25
2019-01-22T08:13:41.776Z,1001.23
2019-01-22T08:14:41.846Z,1001.26
2019-01-22T08:15:41.768Z,1001.25
2019-01-22T08:16:41.855Z,1001.29
2019-01-22T08:17:41.850Z,1001.29
2019-01-22T08:18:41.788Z,1001.25
2019-01-22T08:19:41.744Z,1001.26
2019-01-22T08:20:41.747Z,1001.22
2019-01-22T08:21:41.841Z,1001.23
2019-01-22T08:22:41.759Z,1001.19
2019-01-22T08:23:41.730Z,1001.19
2019-01-22T08:24:41.817Z,1001.18
2019-01-22T08:25:41.871Z,1001.16
2019-01-22T08:26:41.810Z,1001.17
2019-01-22T08:27:41.779Z,1001.14
2019-01-22T08:28:41.862Z,1001.14
2019-01-22T08:29:41.786Z,1001.15
2019-01-22T08:30:41.765Z,1001.18
2019-01-22T08:31:41.852Z,1001.13
2019-01-22T08:32:41.856Z,1001.09
2019-01-22T08:33:42.379Z,1001.11
2019-01-22T08:34:41.872Z,1001.11
2019-01-22T08:35:41.785Z,1001.10
2019-01-22T08:36:41.790Z,1001.11
2019-01-22T08:37:41.862Z,1001.10
2019-01-22T08:38:41.797Z,1001.02
2019-01-22T08:39:41.808Z,1001.04
2019-01-22T08:40:41.869Z,1001.05
2019-01-22T08:41:41.803Z,1000.99
2019-01-22T08:42:41.801Z,1001.01
2019-01-22T08:43:41.874Z,1001.01
2019-01-22T08:44:41.880Z,1001.04
2019-01-22T08:45:41.832Z,1001.01
2019-01-22T08:46:41.875Z,1000.98
2019-01-22T08:47:41.939Z,1000.99
2019-01-22T08:48:41.809Z,1001.00
2019-01-22T08:49:41.790Z,1001.02
2019-01-22T08:50:41.810Z,1000.98
2019-01-22T08:51:41.861Z,1000.97
2019-01-22T08:52:41.751Z,1000.94
2019-01-22T08:53:41.834Z,1000.88
2019-01-22T08:54:41.779Z,1000.91
2019-01-22T08:55:41.795Z,1000.91
2019-01-22T08:56:41.771Z,1000.91
2019-01-22T08:57:41.777Z,1000.90
2019-01-22T08:58:42.913Z,1000.86
2019-01-22T08:59:41.815Z,1000.84
2019-01-22T09:00:41.883Z,1000.86
2019-01-22T09:01:41.827Z,1000.75
2019-01-22T09:02:41.817Z,1000.82
2019-01-22T09:03:41.885Z,1000.83
2019-01-22T09:04:41.787Z,1000.77
2019-01-22T09:05:41.889Z,1000.78
2019-01-22T09:06:41.828Z,1000.79
2019-01-22T09:07:41.827Z,1000.76
2019-01-22T09:08:41.889Z,1000.78
2019-01-22T09:09:41.818Z,1000.77
2019-01-22T09:10:41.822Z,1000.76
2019-01-22T09:11:41.822Z,1000.75
2019-01-22T09:12:41.825Z,1000.76
2019-01-22T09:13:41.824Z,1000.68
2019-01-22T09:14:41.894Z,1000.69
2019-01-22T09:15:41.895Z,1000.67
2019-01-22T09:16:41.828Z,1000.69
2019-01-22T09:17:41.836Z,1000.68
2019-01-22T09:18:41.897Z,1000.66
2019-01-22T09:19:41.898Z,1000.71
2019-01-22T09:20:41.826Z,1000.72
2019-01-22T09:21:41.905Z,1000.66
2019-01-22T09:22:41.826Z,1000.65
2019-01-22T09:23:41.834Z,1000.70
2019-01-22T09:24:41.831Z,1000.70
2019-01-22T09:25:41.832Z,1000.65
2019-01-22T09:26:41.903Z,1000.63
2019-01-22T09:27:41.833Z,1000.68
2019-01-22T09:28:41.908Z,1000.60
2019-01-22T09:29:41.836Z,1000.64
2019-01-22T09:30:41.833Z,1000.59
2019-01-22T09:31:41.835Z,1000.61
2019-01-22T09:32:41.913Z,1000.62
2019-01-22T09:33:41.836Z,1000.58
2019-01-22T09:34:41.841Z,1000.53
2019-01-22T09:35:41.920Z,1000.54
2019-01-22T09:36:41.841Z,1000.55
2019-01-22T09:37:41.917Z,1000.51
2019-01-22T09:38:41.900Z,1000.49
2019-01-22T09:39:41.831Z,1000.49
2019-01-22T09:40:41.909Z,1000.47
2019-01-22T09:41:41.819Z,1000.42
2019-01-22T09:42:41.906Z,1000.42
2019-01-22T09:43:41.835Z,1000.40
2019-01-22T09:44:41.831Z,1000.36
2019-01-22T09:45:41.906Z,1000.40
2019-01-22T09:46:41.834Z,1000.40
2019-01-22T09:47:41.835Z,1000.38
2019-01-22T09:48:41.923Z,1000.37
2019-01-22T09:49:41.854Z,1000.33
2019-01-22T09:50:41.854Z,1000.36
2019-01-22T09:51:41.915Z,1000.33
2019-01-22T09:52:41.850Z,1000.33
2019-01-22T09:53:41.854Z,1000.31
2019-01-22T09:54:41.848Z,1000.32
2019-01-22T09:55:41.852Z,1000.33
2019-01-22T09:56:41.929Z,1000.33
2019-01-22T09:57:41.925Z,1000.31
2019-01-22T09:58:41.849Z,1000.33
2019-01-22T09:59:41.767Z,1000.28
2019-01-22T10:00:41.789Z,1000.34
2019-01-22T10:01:41.846Z,1000.36
2019-01-22T10:02:41.852Z,1000.31
2019-01-22T10:03:41.914Z,1000.33
2019-01-22T10:04:41.846Z,1000.28
2019-01-22T10:05:41.810Z,1000.28
2019-01-22T10:06:41.876Z,1000.25
2019-01-22T10:07:41.892Z,1000.23
2019-01-22T10:08:41.933Z,1000.29
2019-01-22T10:09:41.935Z,1000.23
2019-01-22T10:10:41.933Z,1000.20
2019-01-22T10:11:41.864Z,1000.22
2019-01-22T10:12:41.865Z,1000.22
2019-01-22T10:13:47.883Z,1000.25
2019-01-22T10:14:41.940Z,1000.17
2019-01-22T10:15:41.934Z,1000.16
2019-01-22T10:16:41.943Z,1000.15
2019-01-22T10:17:41.872Z,1000.22
2019-01-22T10:18:41.854Z,1000.17
2019-01-22T10:19:41.863Z,1000.14
2019-01-22T10:20:41.857Z,1000.18
2019-01-22T10:21:41.932Z,1000.13
2019-01-22T10:22:41.935Z,1000.10
2019-01-22T10:23:41.858Z,1000.13
2019-01-22T10:24:41.884Z,1000.08
2019-01-22T10:25:41.930Z,1000.11
2019-01-22T10:26:41.933Z,1000.06
2019-01-22T10:27:41.901Z,1000.08
2019-01-22T10:28:41.877Z,1000.07
2019-01-22T10:29:41.875Z,1000.07
2019-01-22T10:30:41.882Z,1000.02
2019-01-22T10:31:41.948Z,1000.01
2019-01-22T10:32:41.945Z,999.97
2019-01-22T10:33:41.883Z,999.99
2019-01-22T10:34:41.928Z,999.87
2019-01-22T10:35:41.949Z,999.91
2019-01-22T10:36:41.884Z,999.89
2019-01-22T10:37:41.890Z,999.87
2019-01-22T10:38:41.870Z,999.88
2019-01-22T10:39:41.940Z,999.82
2019-01-22T10:40:41.874Z,999.80
2019-01-22T10:41:41.873Z,999.79
2019-01-22T10:42:41.946Z,999.75
2019-01-22T10:43:41.948Z,999.73
2019-01-22T10:44:41.870Z,999.68
2019-01-22T10:45:41.951Z,999.72
2019-01-22T10:46:41.858Z,999.64
2019-01-22T10:47:41.879Z,999.62
2019-01-22T10:48:41.892Z,999.60
2019-01-22T10:49:42.077Z,999.52
2019-01-22T10:50:41.902Z,999.53
2019-01-22T10:51:41.892Z,999.49
2019-01-22T10:52:41.961Z,999.49
2019-01-22T10:53:41.963Z,999.47
2019-01-22T10:54:41.898Z,999.44
2019-01-22T10:55:41.973Z,999.44
2019-01-22T10:56:41.900Z,999.40
2019-01-22T10:57:41.968Z,999.41
2019-01-22T10:58:41.885Z,999.38
2019-01-22T10:59:41.854Z,999.36
2019-01-22T11:00:41.913Z,999.33
2019-01-22T11:01:41.961Z,999.31
2019-01-22T11:02:41.887Z,999.29
2019-01-22T11:03:41.912Z,999.25
2019-01-22T11:04:41.886Z,999.33
2019-01-22T11:05:41.896Z,999.27
2019-01-22T11:06:41.966Z,999.28
2019-01-22T11:07:41.885Z,999.28
2019-01-22T11:08:41.931Z,999.22
2019-01-22T11:09:41.904Z,999.22
2019-01-22T11:10:41.972Z,999.19
2019-01-22T11:11:41.910Z,999.14
2019-01-22T11:12:41.982Z,999.18
2019-01-22T11:13:41.907Z,999.11
2019-01-22T11:14:41.988Z,999.14
2019-01-22T11:15:41.911Z,999.11
2019-01-22T11:16:41.909Z,999.12
2019-01-22T11:17:41.989Z,999.03
2019-01-22T11:18:41.984Z,999.07
2019-01-22T11:19:41.950Z,999.09
2019-01-22T11:20:41.874Z,999.05
2019-01-22T11:21:41.992Z,999.00
2019-01-22T11:22:41.916Z,998.93
2019-01-22T11:23:41.993Z,998.98
2019-01-22T11:24:41.986Z,998.97
2019-01-22T11:25:43.639Z,998.83
2019-01-22T11:26:41.988Z,998.86
2019-01-22T11:27:41.995Z,998.82
2019-01-22T11:28:41.993Z,998.86
2019-01-22T11:29:41.989Z,998.87
2019-01-22T11:30:41.927Z,998.82
2019-01-22T11:31:41.989Z,998.81
2019-01-22T11:32:41.977Z,998.82
2019-01-22T11:33:41.995Z,998.75
2019-01-22T11:34:41.922Z,998.78
2019-01-22T11:35:41.921Z,998.83
2019-01-22T11:36:42.026Z,998.79
2019-01-22T11:37:41.992Z,998.85
2019-01-22T11:38:41.916Z,998.73
2019-01-22T11:39:42.003Z,998.77
2019-01-22T11:40:41.987Z,998.69
2019-01-22T11:41:41.919Z,998.69
2019-01-22T11:42:41.916Z,998.64
2019-01-22T11:43:41.916Z,998.62
2019-01-22T11:44:41.928Z,998.59
2019-01-22T11:45:41.918Z,998.59
2019-01-22T11:46:41.994Z,998.52
2019-01-22T11:47:41.990Z,998.49
2019-01-22T11:48:41.953Z,998.49
2019-01-22T11:49:42.006Z,998.46
2019-01-22T11:50:42.037Z,998.46
2019-01-22T11:51:42.014Z,998.42
2019-01-22T11:52:42.007Z,998.33
2019-01-22T11:53:42.007Z,998.34
2019-01-22T11:54:41.933Z,998.36
2019-01-22T11:55:41.938Z,998.38
2019-01-22T11:56:42.024Z,998.38
2019-01-22T11:57:41.959Z,998.33
2019-01-22T11:58:41.930Z,998.34
2019-01-22T11:59:41.939Z,998.32
2019-01-22T12:00:41.925Z,998.27
2019-01-22T12:01:42.001Z,998.24
2019-01-22T12:02:41.928Z,998.20
2019-01-22T12:03:41.929Z,998.25
2019-01-22T12:04:41.932Z,998.28
2019-01-22T12:05:41.930Z,998.25
2019-01-22T12:06:41.936Z,998.21
2019-01-22T12:07:42.010Z,998.20
2019-01-22T12:08:42.039Z,998.18